Time;durP1;ratioP1;P1;durP2;ratioP2;P2;SDS_P1;SDS_P2;PMS_P1;PMS_P2;Temp;Humidity;BMP_temperature;BMP_pressure;BME280_temperature;BME280_humidity;BME280_pressure;Samples;Min_cycle;Max_cycle;Signal;HPM_P1;HPM_P2
2022/05/18 00:02:06;;;;;;;2.98;1.60;;;;;;;20.37;58.95;101080.73;1687524;84;21042;-47
2022/05/18 00:04:33;;;;;;;2.87;1.75;;;;;;;20.32;58.25;101085.41;1666227;85;21061;-49
2022/05/18 00:07:00;;;;;;;3.77;1.92;;;;;;;20.24;58.05;101082.35;1667187;85;21018;-48
2022/05/18 00:09:27;;;;;;;3.58;1.52;;;;;;;20.14;58.03;101081.13;1668297;84;21035;-51
2022/05/18 00:11:53;;;;;;;2.83;1.62;;;;;;;20.08;58.39;101084.13;1653011;85;22318;-49
2022/05/18 00:14:20;;;;;;;3.60;1.80;;;;;;;20.05;58.47;101086.95;1701927;83;21024;-49
2022/05/18 00:16:47;;;;;;;3.45;1.40;;;;;;;20.03;58.29;101077.77;1692443;84;21055;-49
2022/05/18 00:19:14;;;;;;;2.55;1.65;;;;;;;20.02;58.06;101079.18;1694660;83;21089;-49
2022/05/18 00:21:41;;;;;;;1.47;1.37;;;;;;;20.01;58.28;101073.53;1697730;83;21075;-46
2022/05/18 00:24:08;;;;;;;4.53;1.62;;;;;;;20.02;57.73;101072.58;1706075;83;21041;-49
2022/05/18 00:26:36;;;;;;;2.20;1.80;;;;;;;20.06;57.49;101059.58;1671968;85;21041;-50
2022/05/18 00:29:02;;;;;;;1.90;1.30;;;;;;;20.08;57.43;101057.24;1689321;84;21040;-47
2022/05/18 00:31:29;;;;;;;2.47;1.37;;;;;;;20.10;56.90;101060.65;1693252;83;21060;-48
2022/05/18 00:33:56;;;;;;;2.90;1.50;;;;;;;20.12;57.00;101059.23;1667203;85;21090;-49
2022/05/18 00:36:23;;;;;;;2.35;1.35;;;;;;;20.12;56.72;101060.09;1678271;84;21575;-48
2022/05/18 00:38:50;;;;;;;4.37;1.20;;;;;;;20.12;56.41;101048.67;1656969;84;21078;-47
2022/05/18 00:41:19;;;;;;;4.15;1.00;;;;;;;20.10;55.69;101049.22;1667972;84;21561;-47
2022/05/18 00:43:46;;;;;;;1.82;1.40;;;;;;;20.09;55.23;101056.78;1657752;84;21550;-47
2022/05/18 00:46:14;;;;;;;2.50;1.45;;;;;;;20.08;55.50;101055.06;1661327;84;21518;-50
2022/05/18 00:48:42;;;;;;;2.87;1.30;;;;;;;20.06;55.89;101055.62;1694459;84;21053;-48
2022/05/18 00:51:23;;;;;;;1.42;1.30;;;;;;;20.01;56.00;101047.11;1666069;84;21536;-50
2022/05/18 00:54:14;;;;;;;2.37;1.27;;;;;;;19.98;55.91;101051.23;1683088;83;21490;-49
2022/05/18 00:56:56;;;;;;;3.27;1.40;;;;;;;19.96;55.57;101053.11;1637756;87;21644;-49
2022/05/18 00:59:28;;;;;;;2.20;1.15;;;;;;;19.96;55.28;101047.83;1629096;86;21605;-49
2022/05/18 01:01:55;;;;;;;2.35;1.52;;;;;;;19.98;55.19;101049.45;1653583;85;22358;-50
2022/05/18 01:04:24;;;;;;;2.00;1.32;;;;;;;20.01;55.17;101046.63;1672887;85;21124;-51
2022/05/18 01:07:07;;;;;;;2.20;1.45;;;;;;;20.05;55.22;101043.36;1663789;85;21086;-48
2022/05/18 01:09:41;;;;;;;1.30;1.17;;;;;;;20.08;55.27;101041.39;1649694;86;22874;-47
2022/05/18 01:12:11;;;;;;;2.20;1.65;;;;;;;20.09;55.06;101035.64;1687488;84;21096;-52
2022/05/18 01:14:44;;;;;;;1.67;1.30;;;;;;;20.09;55.09;101040.93;1660869;85;21046;-48
2022/05/18 01:17:14;;;;;;;1.10;1.00;;;;;;;20.11;55.15;101033.77;1656759;85;21058;-47
2022/05/18 01:19:50;;;;;;;8.35;1.80;;;;;;;20.12;54.91;101034.13;1630691;86;21059;-46
2022/05/18 01:23:01;;;;;;;2.00;1.32;;;;;;;20.14;55.06;101033.58;1557816;91;21220;-49
2022/05/18 01:25:42;;;;;;;4.45;1.52;;;;;;;20.18;54.85;101029.36;1567807;91;21096;-48
2022/05/18 01:28:08;;;;;;;2.42;1.40;;;;;;;20.24;54.67;101029.50;1554729;92;21547;-49
2022/05/18 01:30:38;;;;;;;1.92;1.32;;;;;;;20.25;54.54;101028.58;1540758;92;21083;-49
2022/05/18 01:33:07;;;;;;;3.02;1.22;;;;;;;20.25;54.20;101020.66;1574320;91;21025;-46
2022/05/18 01:35:34;;;;;;;2.00;1.22;;;;;;;20.26;54.26;101017.05;1580180;90;21097;-49
2022/05/18 01:38:03;;;;;;;2.95;1.17;;;;;;;20.32;53.87;101024.63;1567575;91;21082;-49
2022/05/18 01:41:10;;;;;;;3.47;1.40;;;;;;;20.30;53.95;101029.15;1552860;92;21069;-49
2022/05/18 01:43:54;;;;;;;1.40;1.20;;;;;;;20.29;54.04;101022.17;1570219;90;21073;-47
2022/05/18 01:46:21;;;;;;;3.30;1.32;;;;;;;20.28;53.24;101025.74;1466226;96;21133;-49
2022/05/18 01:48:50;;;;;;;3.90;1.37;;;;;;;20.29;53.51;101030.11;1471504;96;21204;-49
2022/05/18 01:51:32;;;;;;;1.90;1.17;;;;;;;20.30;53.66;101021.22;1469519;96;21148;-51
2022/05/18 01:53:59;;;;;;;1.70;1.40;;;;;;;20.31;53.38;101025.58;1475889;96;21601;-48
2022/05/18 01:56:25;;;;;;;3.80;1.20;;;;;;;20.30;53.51;101015.94;1480239;95;21162;-46
2022/05/18 01:58:52;;;;;;;1.98;1.40;;;;;;;20.31;52.69;101030.87;1489031;95;22493;-48
2022/05/18 02:01:20;;;;;;;1.85;1.20;;;;;;;20.31;52.68;101035.30;1481641;95;21107;-49
2022/05/18 02:03:48;;;;;;;3.25;1.30;;;;;;;20.31;52.88;101051.15;1476869;95;21134;-50
2022/05/18 02:06:15;;;;;;;1.95;1.62;;;;;;;20.28;52.82;101038.95;1473634;96;21609;-48
2022/05/18 02:08:42;;;;;;;2.00;1.30;;;;;;;20.29;52.41;101052.57;1464534;96;21108;-48
2022/05/18 02:11:17;;;;;;;1.87;1.30;;;;;;;20.24;51.74;101062.07;1474298;95;21110;-49
2022/05/18 02:13:44;;;;;;;2.50;1.10;;;;;;;20.20;50.32;101064.97;1523424;93;21088;-46
2022/05/18 02:16:11;;;;;;;3.08;1.35;;;;;;;20.16;50.05;101059.44;1538361;91;21095;-49
2022/05/18 02:18:37;;;;;;;1.80;1.05;;;;;;;20.15;49.11;101068.33;1566813;90;21149;-50
2022/05/18 02:21:08;;;;;;;2.85;1.35;;;;;;;20.13;49.39;101064.92;1536762;91;21127;-46
2022/05/18 02:23:36;;;;;;;1.63;1.17;;;;;;;20.15;48.94;101069.64;1589634;88;21554;-46
2022/05/18 02:26:13;;;;;;;1.47;1.10;;;;;;;20.12;48.75;101077.73;1591193;89;21592;-49
2022/05/18 02:28:41;;;;;;;2.52;1.30;;;;;;;20.09;48.26;101091.13;1548808;92;21178;-49
2022/05/18 02:31:08;;;;;;;3.12;1.62;;;;;;;20.06;48.44;101091.28;1541132;91;21156;-49
2022/05/18 02:33:36;;;;;;;2.58;1.40;;;;;;;20.03;48.11;101094.11;1548413;91;21108;-51
2022/05/18 02:36:06;;;;;;;2.90;1.17;;;;;;;19.99;48.32;101091.25;1543443;91;21183;-49
2022/05/18 02:38:35;;;;;;;2.92;1.30;;;;;;;19.95;47.89;101101.11;1544979;92;21080;-50
2022/05/18 02:41:02;;;;;;;4.87;1.60;;;;;;;19.91;47.76;101098.25;1538774;92;21562;-49
2022/05/18 02:43:28;;;;;;;4.40;1.37;;;;;;;19.89;47.65;101100.59;1606812;87;21081;-48
2022/05/18 02:46:06;;;;;;;2.35;1.50;;;;;;;19.83;47.62;101111.03;1617443;86;21122;-49
2022/05/18 02:48:33;;;;;;;3.20;1.40;;;;;;;19.82;47.42;101108.48;1586873;89;21103;-48
2022/05/18 02:51:00;;;;;;;2.47;1.40;;;;;;;19.76;47.11;101113.63;1583111;89;21124;-51
2022/05/18 02:53:27;;;;;;;2.87;1.00;;;;;;;19.73;46.15;101110.28;1607948;88;21067;-50
2022/05/18 02:56:05;;;;;;;1.85;1.12;;;;;;;19.71;45.96;101112.16;1566028;89;21651;-48
2022/05/18 02:58:39;;;;;;;1.52;1.00;;;;;;;19.67;46.04;101122.50;1577652;89;21103;-49
2022/05/18 03:01:12;;;;;;;4.55;1.35;;;;;;;19.65;46.01;101113.80;1612852;88;21013;-51
2022/05/18 03:03:40;;;;;;;5.62;1.22;;;;;;;19.61;46.43;101120.18;1545957;91;21110;-45
2022/05/18 03:06:09;;;;;;;4.00;1.20;;;;;;;19.61;46.96;101137.34;1529483;92;21113;-50
2022/05/18 03:08:40;;;;;;;5.20;1.30;;;;;;;19.56;45.79;101138.07;1532010;92;21067;-49
2022/05/18 03:11:08;;;;;;;3.87;2.22;;;;;;;19.52;44.63;101144.41;1547358;91;21083;-50
2022/05/18 03:13:35;;;;;;;1.62;0.98;;;;;;;19.46;44.46;101145.14;1536893;92;21644;-46
2022/05/18 03:16:03;;;;;;;3.40;1.52;;;;;;;19.42;44.57;101144.91;1532054;92;21127;-50
2022/05/18 03:18:30;;;;;;;2.45;1.10;;;;;;;19.37;44.64;101151.37;1535851;92;21627;-49
2022/05/18 03:23:43;;;;;;;6.45;1.35;;;;;;;19.27;44.46;101160.62;1533245;92;21149;-48
2022/05/18 03:26:16;;;;;;;5.58;1.77;;;;;;;19.21;42.97;101158.30;1557868;90;21549;-48
2022/05/18 03:28:45;;;;;;;4.05;1.40;;;;;;;19.13;42.99;101161.34;1488154;95;21173;-48
2022/05/18 03:31:12;;;;;;;3.17;1.55;;;;;;;19.06;43.45;101157.30;1493275;95;21121;-51
2022/05/18 03:33:39;;;;;;;3.17;1.42;;;;;;;19.00;43.11;101159.41;1487104;95;21562;-49
2022/05/18 03:36:08;;;;;;;1.55;1.02;;;;;;;18.95;42.80;101166.23;1490243;94;21130;-46
2022/05/18 03:38:35;;;;;;;5.22;1.47;;;;;;;18.92;41.63;101169.48;1531048;91;21163;-49
2022/05/18 03:41:02;;;;;;;3.65;1.52;;;;;;;18.86;42.04;101162.71;1527327;92;22548;-48
2022/05/18 03:43:29;;;;;;;1.70;1.07;;;;;;;18.84;42.49;101168.52;1542441;92;21086;-48
2022/05/18 03:45:58;;;;;;;5.00;1.50;;;;;;;18.84;43.00;101175.11;1538962;92;21139;-47
2022/05/18 03:48:25;;;;;;;5.67;1.30;;;;;;;18.82;42.20;101178.30;1536995;92;21109;-49
2022/05/18 03:50:53;;;;;;;4.80;1.30;;;;;;;18.79;41.82;101191.64;1545801;92;21279;-47
2022/05/18 03:53:19;;;;;;;2.77;1.20;;;;;;;18.77;42.90;101192.19;1519373;92;21597;-50
2022/05/18 03:55:46;;;;;;;3.35;1.20;;;;;;;18.74;43.16;101192.31;1537615;91;21083;-49
2022/05/18 03:58:14;;;;;;;2.77;1.40;;;;;;;18.74;42.36;101200.68;1549489;91;21089;-46
2022/05/18 04:00:42;;;;;;;1.60;1.22;;;;;;;18.73;42.74;101203.80;1582347;88;21529;-46
2022/05/18 04:03:09;;;;;;;2.25;1.17;;;;;;;18.72;42.85;101209.98;1612977;87;21117;-46
2022/05/18 04:05:38;;;;;;;4.25;1.15;;;;;;;18.72;42.73;101206.49;1599933;88;21128;-46
2022/05/18 04:08:07;;;;;;;6.60;1.25;;;;;;;18.68;43.83;101215.02;1609724;87;21809;-50
2022/05/18 04:10:34;;;;;;;1.85;1.05;;;;;;;18.66;43.05;101220.83;1619303;87;21025;-48
2022/05/18 04:13:01;;;;;;;3.92;1.50;;;;;;;18.66;43.70;101231.38;1603810;88;21109;-50
2022/05/18 04:15:28;;;;;;;3.72;1.17;;;;;;;18.63;43.44;101234.14;1608743;87;21168;-48
2022/05/18 04:17:55;;;;;;;2.70;1.27;;;;;;;18.60;44.08;101226.39;1602087;88;21589;-49
2022/05/18 04:20:23;;;;;;;4.05;1.27;;;;;;;18.56;43.99;101226.15;1596429;88;21089;-50
2022/05/18 04:22:50;;;;;;;2.60;1.45;;;;;;;18.54;43.62;101238.55;1611640;87;21049;-48
2022/05/18 04:25:25;;;;;;;4.00;1.42;;;;;;;18.52;44.12;101228.53;1630486;84;21077;-49
2022/05/18 04:27:53;;;;;;;2.12;1.22;;;;;;;18.47;44.21;101228.75;1664652;84;21028;-49
2022/05/18 04:30:24;;;;;;;4.87;1.87;;;;;;;18.43;43.58;101236.83;1661444;84;21053;-45
2022/05/18 04:32:52;;;;;;;4.30;1.45;;;;;;;18.37;44.10;101239.75;1683696;85;21088;-46
2022/05/18 04:35:20;;;;;;;1.87;1.20;;;;;;;18.30;44.93;101236.53;1698138;83;21085;-49
2022/05/18 04:37:47;;;;;;;3.80;1.30;;;;;;;18.27;44.53;101235.38;1666342;85;21058;-49
2022/05/18 04:40:14;;;;;;;2.02;1.20;;;;;;;18.25;45.23;101231.95;1664016;84;21108;-49
2022/05/18 04:42:41;;;;;;;3.40;1.95;;;;;;;18.25;44.29;101233.73;1670459;84;21027;-50
2022/05/18 04:45:11;;;;;;;2.92;1.42;;;;;;;18.22;44.17;101237.80;1692791;83;21021;-47
2022/05/18 04:47:37;;;;;;;4.20;1.82;;;;;;;18.19;43.99;101237.95;1702955;83;20999;-46
2022/05/18 04:50:06;;;;;;;4.20;1.07;;;;;;;18.16;43.37;101242.03;1678801;85;21557;-48
2022/05/18 04:52:33;;;;;;;2.25;1.10;;;;;;;18.10;42.81;101227.83;1680925;85;20989;-48
2022/05/18 04:55:01;;;;;;;3.58;1.52;;;;;;;18.09;41.72;101227.45;1680812;85;21526;-48
2022/05/18 04:57:28;;;;;;;3.62;1.75;;;;;;;18.07;41.17;101227.98;1680719;85;21015;-48
2022/05/18 04:59:55;;;;;;;6.80;1.50;;;;;;;18.03;40.66;101232.54;1689018;83;21529;-48
2022/05/18 05:02:22;;;;;;;5.80;1.32;;;;;;;18.03;40.17;101227.27;1660749;85;21190;-48
2022/05/18 05:04:48;;;;;;;3.45;1.42;;;;;;;18.03;40.59;101234.31;1653499;84;21002;-48
2022/05/18 05:07:15;;;;;;;5.03;1.40;;;;;;;18.01;40.71;101236.16;1666812;84;21045;-49
2022/05/18 05:09:43;;;;;;;3.12;1.40;;;;;;;18.02;40.42;101239.17;1660652;84;21059;-47
2022/05/18 05:12:11;;;;;;;5.10;1.65;;;;;;;18.05;40.72;101239.05;1687918;84;21178;-45
2022/05/18 05:14:39;;;;;;;9.98;1.62;;;;;;;18.07;40.52;101246.42;1679027;84;21104;-49
2022/05/18 05:17:06;;;;;;;4.75;1.30;;;;;;;18.07;40.08;101246.42;1671623;84;21491;-45
2022/05/18 05:19:35;;;;;;;3.83;1.62;;;;;;;18.06;39.92;101236.79;1684739;83;21060;-48
2022/05/18 05:22:02;;;;;;;4.05;1.87;;;;;;;18.05;39.83;101245.62;1666483;84;21105;-49
2022/05/18 05:24:29;;;;;;;3.95;1.62;;;;;;;18.03;39.61;101245.70;1678922;85;21535;-45
2022/05/18 05:26:55;;;;;;;3.45;1.55;;;;;;;18.02;40.07;101243.12;1684123;83;21061;-49
2022/05/18 05:29:22;;;;;;;8.50;2.02;;;;;;;18.00;39.18;101242.33;1677655;85;21124;-48
2022/05/18 05:31:49;;;;;;;4.90;1.80;;;;;;;17.97;38.66;101245.12;1658305;85;21018;-46
2022/05/18 05:34:16;;;;;;;3.20;1.82;;;;;;;17.93;38.74;101250.13;1668496;85;21057;-46
2022/05/18 05:36:42;;;;;;;4.37;2.12;;;;;;;17.89;38.59;101248.07;1654596;84;21026;-48
2022/05/18 05:39:09;;;;;;;7.62;2.30;;;;;;;17.88;38.21;101261.72;1653124;85;21094;-48
2022/05/18 05:41:36;;;;;;;8.63;2.65;;;;;;;17.83;37.18;101251.84;1658752;84;21070;-48
2022/05/18 05:44:03;;;;;;;4.35;2.40;;;;;;;17.80;36.58;101258.53;1686861;83;21067;-48
2022/05/18 05:46:30;;;;;;;11.05;3.33;;;;;;;17.77;37.14;101260.00;1701612;84;21069;-46
2022/05/18 05:48:57;;;;;;;6.12;2.30;;;;;;;17.72;37.19;101266.39;1681740;84;21107;-48
2022/05/18 05:51:25;;;;;;;8.03;2.70;;;;;;;17.70;37.43;101254.59;1660062;83;21072;-48
2022/05/18 05:53:52;;;;;;;6.35;3.10;;;;;;;17.68;37.04;101256.44;1673605;85;21063;-48
2022/05/18 05:56:20;;;;;;;5.90;3.47;;;;;;;17.66;37.70;101268.81;1655526;84;21070;-45
2022/05/18 05:58:48;;;;;;;5.17;3.02;;;;;;;17.64;38.21;101274.59;1660779;84;21049;-49
2022/05/18 06:01:15;;;;;;;11.38;2.98;;;;;;;17.64;38.37;101270.65;1702532;83;21033;-48
2022/05/18 06:03:42;;;;;;;4.30;2.80;;;;;;;17.64;38.18;101281.66;1649664;85;21103;-46
2022/05/18 06:06:10;;;;;;;8.43;3.25;;;;;;;17.64;38.02;101279.86;1665251;85;21047;-45
2022/05/18 06:08:38;;;;;;;6.58;2.87;;;;;;;17.61;37.85;101278.69;1680425;84;21115;-48
2022/05/18 06:11:07;;;;;;;8.20;2.85;;;;;;;17.61;38.36;101285.72;1665847;85;21131;-45
2022/05/18 06:13:34;;;;;;;9.18;2.92;;;;;;;17.60;37.17;101296.70;1674138;85;21570;-46
2022/05/18 06:16:02;;;;;;;7.72;3.25;;;;;;;17.56;37.98;101284.59;1651304;84;21106;-46
2022/05/18 06:18:30;;;;;;;10.05;2.90;;;;;;;17.57;37.74;101294.22;1681265;85;21046;-49
2022/05/18 06:20:57;;;;;;;9.13;3.35;;;;;;;17.59;38.37;101296.32;1690541;84;21050;-46
2022/05/18 06:23:24;;;;;;;9.05;2.65;;;;;;;17.57;37.55;101292.90;1680793;84;21048;-48
2022/05/18 06:25:51;;;;;;;5.40;2.77;;;;;;;17.51;36.43;101301.05;1680540;85;21084;-49
2022/05/18 06:28:18;;;;;;;5.45;2.85;;;;;;;17.46;37.72;101306.92;1680657;85;21095;-46
2022/05/18 06:30:45;;;;;;;4.08;2.87;;;;;;;17.44;37.51;101297.37;1680366;85;21060;-48
2022/05/18 06:33:13;;;;;;;5.92;2.83;;;;;;;17.41;38.25;101303.64;1680706;85;20992;-48
2022/05/18 06:35:40;;;;;;;11.20;3.25;;;;;;;17.39;38.18;101297.59;1680161;85;21082;-49
2022/05/18 06:38:13;;;;;;;4.60;2.80;;;;;;;17.40;37.39;101306.31;1679372;84;21101;-47
2022/05/18 06:43:27;;;;;;;4.17;2.20;;;;;;;17.35;36.96;101318.81;1655529;85;21027;-47
2022/05/18 06:45:55;;;;;;;7.85;2.90;;;;;;;17.34;38.38;101320.58;1682675;84;21551;-48
2022/05/18 06:48:22;;;;;;;5.95;3.00;;;;;;;17.36;37.99;101320.50;1695946;84;21031;-46
2022/05/18 06:50:49;;;;;;;6.35;2.70;;;;;;;17.38;37.71;101324.80;1676015;85;21607;-45
2022/05/18 06:53:16;;;;;;;3.02;2.25;;;;;;;17.37;38.03;101321.75;1665234;84;21565;-46
2022/05/18 06:55:43;;;;;;;4.78;2.17;;;;;;;17.40;38.70;101329.53;1666137;84;21062;-48
2022/05/18 06:58:10;;;;;;;5.08;2.60;;;;;;;17.42;38.69;101330.78;1666350;84;21117;-45
2022/05/18 07:00:37;;;;;;;4.83;2.45;;;;;;;17.42;39.54;101330.78;1688603;83;21082;-47
2022/05/18 07:03:05;;;;;;;7.22;2.77;;;;;;;17.44;38.61;101331.57;1695936;83;21041;-48
2022/05/18 07:05:31;;;;;;;4.28;2.42;;;;;;;17.44;38.99;101335.06;1692208;84;20988;-48
2022/05/18 07:08:00;;;;;;;4.20;2.70;;;;;;;17.46;39.20;101342.44;1693071;83;21037;-48
2022/05/18 07:10:28;;;;;;;4.85;2.58;;;;;;;17.47;39.16;101349.88;1657178;85;21053;-49
2022/05/18 07:12:56;;;;;;;8.15;3.50;;;;;;;17.46;38.46;101343.75;1693066;84;21013;-48
2022/05/18 07:15:23;;;;;;;6.62;4.08;;;;;;;17.48;38.01;101352.44;1685021;83;21017;-48
2022/05/18 07:17:49;;;;;;;10.93;4.47;;;;;;;17.50;38.28;101350.62;1704842;84;21733;-48
2022/05/18 07:20:18;;;;;;;8.95;5.30;;;;;;;17.55;38.53;101358.34;1690094;83;21497;-48
2022/05/18 07:22:45;;;;;;;9.25;5.62;;;;;;;17.61;38.56;101367.30;1700594;83;21083;-45
2022/05/18 07:25:12;;;;;;;13.98;7.33;;;;;;;17.70;37.47;101370.89;1669049;85;21112;-44
2022/05/18 07:27:39;;;;;;;9.90;6.65;;;;;;;17.78;37.47;101374.89;1665845;85;21068;-45
2022/05/18 07:30:08;;;;;;;15.60;7.00;;;;;;;17.89;37.82;101371.81;1672585;85;21035;-45
2022/05/18 07:32:37;;;;;;;9.00;7.05;;;;;;;18.01;36.14;101383.63;1699259;83;21018;-48
2022/05/18 07:35:04;;;;;;;11.73;7.10;;;;;;;18.07;36.29;101383.36;1673338;84;21061;-48
2022/05/18 07:37:31;;;;;;;14.93;7.90;;;;;;;18.09;36.03;101382.38;1674768;84;21062;-45
2022/05/18 07:39:58;;;;;;;11.25;7.12;;;;;;;18.14;36.34;101384.80;1672539;84;21079;-48
2022/05/18 07:42:24;;;;;;;12.82;7.22;;;;;;;18.16;37.03;101382.95;1667865;84;21073;-46
2022/05/18 07:44:51;;;;;;;11.68;7.15;;;;;;;18.19;37.69;101388.09;1667551;84;21081;-45
2022/05/18 07:47:20;;;;;;;9.98;7.35;;;;;;;18.23;37.53;101393.17;1662648;84;21086;-48
2022/05/18 07:49:46;;;;;;;12.60;7.97;;;;;;;18.27;37.57;101385.98;1676500;84;21765;-45
2022/05/18 07:52:13;;;;;;;16.23;9.33;;;;;;;18.30;37.54;101384.55;1676905;84;21046;-47
2022/05/18 07:54:39;;;;;;;12.33;8.25;;;;;;;18.32;37.32;101399.83;1691687;83;21565;-48
2022/05/18 07:57:08;;;;;;;13.68;9.10;;;;;;;18.37;37.33;101407.05;1688353;83;21539;-48
2022/05/18 07:59:36;;;;;;;14.75;8.43;;;;;;;18.43;36.68;101393.19;1668461;84;21105;-45
2022/05/18 08:02:04;;;;;;;14.28;8.20;;;;;;;18.54;36.47;101404.59;1676919;85;21019;-48
2022/05/18 08:04:32;;;;;;;10.75;7.35;;;;;;;18.67;37.03;101405.73;1696438;83;21039;-49
2022/05/18 08:06:58;;;;;;;13.83;6.85;;;;;;;18.79;36.54;101410.48;1675408;84;21047;-48
2022/05/18 08:09:25;;;;;;;11.95;6.47;;;;;;;18.89;35.00;101403.86;1672609;84;21073;-49
2022/05/18 08:17:23;;;;;;;10.32;5.72;;;;;;;19.11;34.08;101416.44;1643415;85;21060;-50
2022/05/18 08:19:50;;;;;;;6.37;4.30;;;;;;;19.17;34.42;101417.47;1657408;84;21582;-46
2022/05/18 08:22:19;;;;;;;6.70;4.33;;;;;;;19.23;33.48;101418.50;1662346;84;21039;-46
2022/05/18 08:24:46;;;;;;;10.25;5.05;;;;;;;19.31;34.24;101419.00;1689389;84;21047;-45
2022/05/18 08:27:15;;;;;;;8.25;4.87;;;;;;;19.40;33.43;101418.61;1661686;84;21051;-48
2022/05/18 08:29:43;;;;;;;5.97;4.47;;;;;;;19.47;33.85;101420.00;1665774;83;21024;-48
2022/05/18 08:32:10;;;;;;;6.20;4.20;;;;;;;19.54;33.35;101418.42;1692003;83;21033;-48
2022/05/18 08:34:37;;;;;;;3.92;3.20;;;;;;;19.60;33.73;101422.09;1677108;84;21054;-47
2022/05/18 08:37:04;;;;;;;8.58;3.22;;;;;;;19.65;31.78;101420.92;1686669;84;21099;-49
2022/05/18 08:39:32;;;;;;;3.37;3.08;;;;;;;19.70;31.49;101415.42;1662032;85;21176;-48
2022/05/18 08:42:01;;;;;;;5.53;3.08;;;;;;;19.70;33.60;101421.53;1692885;83;21119;-45
2022/05/18 08:44:32;;;;;;;6.30;2.90;;;;;;;19.76;32.65;101421.72;1670705;85;21062;-47
2022/05/18 08:47:06;;;;;;;;;;;;;;;19.81;32.93;101417.92;1704879;84;21020;-48
2022/05/18 08:50:07;;;;;;;3.98;2.70;;;;;;;19.86;32.75;101435.73;1688429;83;20199;-48
2022/05/18 08:52:47;;;;;;;7.42;2.40;;;;;;;19.90;31.89;101433.78;1676083;85;21551;-50
2022/05/18 08:55:41;;;;;;;6.87;3.30;;;;;;;19.93;31.42;101428.33;1697842;84;21091;-50
2022/05/18 08:58:15;;;;;;;15.83;4.17;;;;;;;19.99;32.04;101436.81;1675393;85;21049;-51
2022/05/18 09:00:49;;;;;;;6.75;3.00;;;;;;;20.04;32.33;101433.94;1646797;86;21055;-46
2022/05/18 09:03:19;;;;;;;6.47;2.80;;;;;;;20.12;31.57;101443.66;1595019;89;21096;-46
2022/05/18 09:06:04;;;;;;;5.05;3.05;;;;;;;20.14;30.50;101443.11;1596026;89;21155;-45
2022/05/18 09:08:40;;;;;;;5.85;3.15;;;;;;;20.15;31.81;101442.20;1596611;89;21044;-52
2022/05/18 09:11:18;;;;;;;5.67;3.67;;;;;;;20.22;31.44;101438.33;1585822;89;21052;-47
2022/05/18 09:13:45;;;;;;;4.22;3.30;;;;;;;20.27;30.49;101441.61;1593087;89;21139;-48
2022/05/18 09:16:23;;;;;;;4.70;3.55;;;;;;;20.35;31.49;101443.39;1599789;89;21102;-45
2022/05/18 09:19:10;;;;;;;7.80;3.60;;;;;;;20.39;30.48;101447.59;1594349;89;21106;-48
2022/05/18 09:21:58;;;;;;;6.25;3.70;;;;;;;20.42;30.87;101435.55;1593749;89;21077;-51
2022/05/18 09:25:22;;;;;;;10.98;4.53;;;;;;;20.48;30.48;101440.52;1498453;95;21691;-47
2022/05/18 09:28:35;;;;;;;7.50;4.08;;;;;;;20.52;30.90;101435.91;1500735;95;21554;-46
2022/05/18 09:31:21;;;;;;;8.08;5.25;;;;;;;20.63;30.78;101457.37;1498291;95;21142;-48
2022/05/18 09:34:25;;;;;;;8.43;5.12;;;;;;;20.71;29.62;101457.83;1498737;95;21587;-48
2022/05/18 09:37:25;;;;;;;10.18;7.03;;;;;;;20.74;29.42;101453.22;1520405;93;21132;-47
2022/05/18 09:40:01;;;;;;;8.15;5.30;;;;;;;20.79;30.02;101445.05;1493543;95;21697;-47
2022/05/18 09:42:33;;;;;;;9.15;6.00;;;;;;;20.78;31.91;101457.41;1499893;94;21196;-48
2022/05/18 09:45:17;;;;;;;9.68;5.95;;;;;;;20.81;31.19;101451.11;1494511;93;21102;-47
2022/05/18 09:47:50;;;;;;;9.73;6.45;;;;;;;20.82;30.42;101456.31;1488293;94;21101;-47
2022/05/18 09:50:17;;;;;;;11.80;7.42;;;;;;;20.81;29.21;101461.20;1503271;94;21640;-46
2022/05/18 09:52:46;;;;;;;11.30;6.78;;;;;;;20.78;29.17;101460.06;1524861;93;21143;-51
2022/05/18 09:55:15;;;;;;;10.08;6.90;;;;;;;20.76;28.30;101473.83;1513245;93;21610;-48
2022/05/18 09:57:57;;;;;;;11.73;7.08;;;;;;;20.76;28.78;101469.86;1487610;95;21112;-50
2022/05/18 10:00:27;;;;;;;10.25;7.10;;;;;;;20.80;28.23;101471.41;1508957;92;21061;-47
2022/05/18 10:08:35;;;;;;;8.10;6.40;;;;;;;21.00;28.92;101484.89;1559340;90;20103;-47
2022/05/18 10:11:14;;;;;;;8.25;7.45;;;;;;;21.04;27.74;101472.78;1585886;89;21095;-50
2022/05/18 10:14:01;;;;;;;7.75;6.95;;;;;;;21.08;27.59;101483.22;1588337;89;21043;-45
2022/05/18 10:16:44;;;;;;;13.55;8.63;;;;;;;21.12;28.41;101495.34;1543686;89;21089;-48
2022/05/18 10:19:37;;;;;;;9.80;8.28;;;;;;;21.17;27.16;101494.61;1563550;88;21033;-46
2022/05/18 10:22:05;;;;;;;9.88;8.48;;;;;;;21.19;28.56;101492.27;1559381;91;21159;-49
2022/05/18 10:24:51;;;;;;;12.70;9.18;;;;;;;21.23;27.67;101495.14;1556984;91;21679;-47
2022/05/18 10:27:28;;;;;;;11.57;10.05;;;;;;;21.25;27.13;101485.78;1570952;90;21082;-47
2022/05/18 10:30:28;;;;;;;14.83;11.83;;;;;;;21.29;27.04;101493.48;1560395;90;21132;-48
2022/05/18 10:33:07;;;;;;;13.28;11.50;;;;;;;21.32;27.09;101497.77;1561048;89;21069;-45
2022/05/18 10:35:50;;;;;;;14.58;11.97;;;;;;;21.25;26.79;101497.23;1567664;90;21567;-47
2022/05/18 10:38:31;;;;;;;14.20;9.95;;;;;;;21.19;27.11;101488.77;1581639;89;21630;-48
2022/05/18 10:41:13;;;;;;;14.03;9.03;;;;;;;21.18;27.64;101503.81;1588291;90;21129;-47
2022/05/18 10:43:57;;;;;;;10.93;8.40;;;;;;;21.14;27.48;101508.02;1563081;90;21111;-47
2022/05/18 10:46:38;;;;;;;7.72;6.28;;;;;;;21.17;26.92;101503.88;1583727;90;21156;-49
2022/05/18 10:49:33;;;;;;;6.20;4.87;;;;;;;21.21;25.77;101504.09;1581599;90;21611;-47
2022/05/18 10:52:22;;;;;;;3.30;2.72;;;;;;;21.27;25.56;101509.09;1578861;90;21607;-47
2022/05/18 10:54:58;;;;;;;4.40;3.77;;;;;;;21.34;24.95;101507.34;1553221;90;21651;-50
2022/05/18 10:57:36;;;;;;;10.35;4.58;;;;;;;21.31;27.25;101504.02;1565580;90;21119;-49
2022/05/18 11:00:10;;;;;;;4.25;2.90;;;;;;;21.25;27.30;101506.50;1571737;91;21574;-50
2022/05/18 11:02:57;;;;;;;6.47;2.75;;;;;;;21.15;27.64;101525.14;1554707;92;21019;-48
2022/05/18 11:05:46;;;;;;;4.35;1.98;;;;;;;21.06;27.36;101531.77;1571956;91;21060;-48
2022/05/18 11:08:17;;;;;;;3.87;1.70;;;;;;;21.05;26.85;101527.43;1546767;92;21512;-49
2022/05/18 11:11:04;;;;;;;1.37;1.00;;;;;;;21.10;26.19;101522.36;1569197;90;21020;-49
2022/05/18 11:13:54;;;;;;;3.95;1.05;;;;;;;21.15;26.87;101522.95;1541624;92;21600;-46
2022/05/18 11:16:43;;;;;;;3.80;1.20;;;;;;;21.24;26.38;101527.31;1466907;97;21166;-45
2022/05/18 11:19:35;;;;;;;2.58;0.90;;;;;;;21.34;27.30;101530.30;1463851;97;21156;-48
2022/05/18 11:22:25;;;;;;;1.05;0.75;;;;;;;21.43;26.61;101528.00;1458517;97;21124;-50
2022/05/18 11:25:32;;;;;;;2.35;0.78;;;;;;;21.45;26.26;101535.88;1452050;97;21635;-46
2022/05/18 11:28:04;;;;;;;3.50;1.20;;;;;;;21.48;25.96;101531.27;1409962;101;21665;-46
2022/05/18 11:30:50;;;;;;;3.35;1.10;;;;;;;21.50;24.42;101542.63;1426690;100;21097;-46
2022/05/18 11:33:46;;;;;;;4.45;0.90;;;;;;;21.42;25.50;101541.33;1440123;100;21605;-47
2022/05/18 11:36:43;;;;;;;2.25;0.65;;;;;;;21.25;26.55;101548.85;1436660;97;21055;-48
2022/05/18 11:39:18;;;;;;;4.03;0.90;;;;;;;21.10;26.36;101552.79;1456229;97;21577;-48
2022/05/18 11:42:15;;;;;;;1.72;0.85;;;;;;;20.98;25.45;101549.81;1453343;97;21149;-50
2022/05/18 11:44:59;;;;;;;1.70;0.98;;;;;;;20.96;26.26;101556.11;1455345;97;21666;-45
2022/05/18 11:47:38;;;;;;;2.52;0.80;;;;;;;21.05;26.50;101555.22;1438335;99;21135;-45
2022/05/18 11:50:26;;;;;;;3.92;0.82;;;;;;;21.16;26.25;101555.98;1455154;95;22323;-50
2022/05/18 11:53:21;;;;;;;0.70;0.70;;;;;;;21.20;25.93;101543.42;1504354;93;21168;-50
2022/05/18 11:55:53;;;;;;;2.00;0.80;;;;;;;21.21;25.37;101553.06;1538781;92;22354;-49
2022/05/18 11:59:07;;;;;;;1.32;0.57;;;;;;;21.24;26.63;101558.20;1514905;93;21177;-50
2022/05/18 12:02:02;;;;;;;1.00;0.80;;;;;;;21.29;25.03;101544.27;1503200;92;21233;-48
2022/05/18 12:05:03;;;;;;;4.37;0.95;;;;;;;21.32;25.82;101554.68;1483882;96;21163;-45
2022/05/18 12:07:49;;;;;;;2.17;0.70;;;;;;;21.24;25.23;101555.56;1470328;96;21113;-48